Tuesday, January 16, 2018, 12:14 PM EST
Back to Local

KMLT, Millinocket Municipal Airport

Location: Millinocket, ME, United States Lat: 45.65
Local Time: 12:14 PM EST (17:14 GMT) Lon: -68.7
Time Zone: US/Eastern Elev: 406 ft

Show me the last for .
Show Coded

Time T Td Feel RH Dir Speed Gust Alt SLP Vis Weather Sky Remarks
2018-01-16 11:53 15 8 9 73 300° 3 - 30.46 30.50 5 -SN OVC018 1-hr Precip Total: Trace
2018-01-16 10:53 13 8 - 80 - Calm - 30.48 30.53 7 OVC021 1-hr Precip Total: Trace
2018-01-16 09:53 13 8 - 80 - Calm - 30.50 30.54 7 OVC022 1-hr Precip Total: Trace
6-hr Precip Total (10am): 0.00"
2018-01-16 08:53 11 6 - 80 - Calm - 30.49 30.54 6 HZ OVC020 1-hr Precip Total: Trace
2018-01-16 07:53 10 6 4 83 300° 3 - 30.50 30.55 7 OVC020 None
2018-01-16 06:53 10 6 4 83 300° 3 - 30.50 30.55 9 OVC021 6-hr Precip Total (7am): 0.00"
6-hr Min Temp (7am): 8.1°F
6-hr Max Temp (7am): 10.0°F
2018-01-16 05:53 9 5 1 83 310° 5 - 30.50 30.55 5 BR OVC021 1-hr Precip Total: Trace
2018-01-16 04:53 8 4 - 82 - Calm - 30.51 30.55 7 OVC019 1-hr Precip Total: Trace
2018-01-16 03:53 9 4 1 79 330° 5 - 30.54 30.58 7 OVC020 None
2018-01-16 02:53 9 4 -1 79 10° 6 - 30.54 30.58 8 OVC024 None
2018-01-16 01:53 9 5 1 83 360° 5 - 30.54 30.59 8 OVC024 None
2018-01-16 00:53 9 5 -2 83 350° 7 - 30.57 30.62 8 OVC021 6-hr Min Temp (1am): 9.0°F
6-hr Max Temp (1am): 10.9°F
2018-01-15 23:53 9 4 -2 79 340° 7 - 30.59 30.64 9 OVC022 24-hr Min Temp (12am): -9.0°F
24-hr Max Temp (12am): 10.9°F
2018-01-15 22:53 10 5 -1 79 360° 7 - 30.61 30.65 9 OVC022 None
2018-01-15 21:53 10 5 -2 79 360° 8 - 30.64 30.68 9 OVC022 None
2018-01-15 20:53 10 5 -2 79 20° 8 - 30.65 30.69 6 HZ OVC022 None
2018-01-15 19:53 10 5 -2 79 360° 8 - 30.68 30.73 9 OVC024 None
2018-01-15 18:53 10 5 -2 79 10° 8 - 30.69 30.74 7 OVC024 6-hr Min Temp (7pm): 9.0°F
6-hr Max Temp (7pm): 10.9°F
2018-01-15 17:53 11 6 1 80 20° 6 - 30.72 30.76 10 OVC023 None
2018-01-15 16:53 11 6 3 80 20° 5 - 30.73 30.78 10 OVC024 None
2018-01-15 15:53 11 5 1 76 10° 6 - 30.71 30.76 10 OVC026 None
2018-01-15 14:53 11 4 0 72 360° 7 - 30.72 30.77 10 OVC025 None
2018-01-15 13:53 10 2 -1 69 360° 7 - 30.74 30.79 10 OVC024 None
2018-01-15 12:53 9 2 1 72 350° 5 - 30.77 30.82 10 OVC024 6-hr Min Temp (1pm): -8.0°F
6-hr Max Temp (1pm): 9.0°F

Support USWX by starting your Amazon purchase here.